createdAt,value
2024-03-06T00:00:55.007Z,93.64
2024-03-06T00:03:21.608Z,93.75
2024-03-06T00:05:48.855Z,93.92
2024-03-06T00:08:15.873Z,93.45
2024-03-06T00:10:42.869Z,93.62
2024-03-06T00:13:09.568Z,93.89
2024-03-06T00:15:36.224Z,93.92
2024-03-06T00:18:04.549Z,93.92
2024-03-06T00:20:31.131Z,93.66
2024-03-06T00:22:57.918Z,93.69
2024-03-06T00:25:24.506Z,93.95
2024-03-06T00:27:51.126Z,94.46
2024-03-06T00:30:17.883Z,94.41
2024-03-06T00:32:44.654Z,93.74
2024-03-06T00:35:13.354Z,94.33
2024-03-06T00:37:40.266Z,93.89
2024-03-06T00:40:07.768Z,94.40
2024-03-06T00:42:34.541Z,94.38
2024-03-06T00:45:01.237Z,94.48
2024-03-06T00:47:28.457Z,94.18
2024-03-06T00:49:55.135Z,94.31
2024-03-06T00:52:21.845Z,94.29
2024-03-06T00:54:48.496Z,94.56
2024-03-06T00:57:15.100Z,94.11
2024-03-06T00:59:41.678Z,94.41
2024-03-06T01:02:08.360Z,94.77
2024-03-06T01:04:35.093Z,94.67
2024-03-06T01:07:01.750Z,94.40
2024-03-06T01:09:28.409Z,94.09
2024-03-06T01:11:55.025Z,94.41
2024-03-06T01:14:23.554Z,94.52
2024-03-06T01:16:50.172Z,94.15
2024-03-06T01:19:16.753Z,94.50
2024-03-06T01:21:43.432Z,94.11
2024-03-06T01:24:10.026Z,94.41
2024-03-06T01:26:36.711Z,94.38
2024-03-06T01:29:03.635Z,94.30
2024-03-06T01:31:30.396Z,94.13
2024-03-06T01:33:57.001Z,93.83
2024-03-06T01:36:23.654Z,94.16
2024-03-06T01:38:50.228Z,94.09
2024-03-06T01:41:17.033Z,94.33
2024-03-06T01:43:43.975Z,94.07
2024-03-06T01:46:10.616Z,94.17
2024-03-06T01:48:37.286Z,94.08
2024-03-06T01:51:06.036Z,94.07
2024-03-06T01:53:34.728Z,94.53
2024-03-06T01:56:02.586Z,94.65
2024-03-06T01:58:29.492Z,94.45
2024-03-06T02:00:56.479Z,94.20
2024-03-06T02:03:23.765Z,94.65
2024-03-06T02:05:51.770Z,94.82
2024-03-06T02:08:18.866Z,94.52
2024-03-06T02:10:46.487Z,94.28
2024-03-06T02:13:14.859Z,94.51
2024-03-06T02:15:42.048Z,94.34
2024-03-06T02:18:10.198Z,94.68
2024-03-06T02:20:41.075Z,94.48
2024-03-06T02:23:08.867Z,94.81
2024-03-06T02:25:35.763Z,94.63
2024-03-06T02:28:02.461Z,94.68
2024-03-06T02:30:31.553Z,94.41
2024-03-06T02:32:58.388Z,94.42
2024-03-06T02:35:25.108Z,94.74
2024-03-06T02:37:51.728Z,94.42
2024-03-06T02:40:18.433Z,94.41
2024-03-06T02:42:45.065Z,94.46
2024-03-06T02:45:11.656Z,94.50
2024-03-06T02:47:38.447Z,94.54
2024-03-06T02:50:06.324Z,94.78
2024-03-06T02:52:33.161Z,94.81
2024-03-06T02:55:01.142Z,95.07
2024-03-06T02:57:29.493Z,94.91
2024-03-06T02:59:59.843Z,94.91
2024-03-06T03:02:27.149Z,94.90
2024-03-06T03:04:54.066Z,94.97
2024-03-06T03:07:20.812Z,95.01
2024-03-06T03:09:48.228Z,94.50
2024-03-06T03:12:15.004Z,94.88
2024-03-06T03:14:42.380Z,95.13
2024-03-06T03:17:09.154Z,95.05
2024-03-06T03:19:36.222Z,94.82
2024-03-06T03:22:05.405Z,95.15
2024-03-06T03:24:32.231Z,95.25
2024-03-06T03:26:58.845Z,95.09
2024-03-06T03:29:25.396Z,95.20
2024-03-06T03:31:52.106Z,95.16
2024-03-06T03:34:18.750Z,95.27
2024-03-06T03:36:45.404Z,95.78
2024-03-06T03:39:18.387Z,95.45
2024-03-06T03:41:49.462Z,95.79
2024-03-06T03:44:17.890Z,95.58
2024-03-06T03:46:44.805Z,95.49
2024-03-06T03:49:11.820Z,95.55
2024-03-06T03:51:39.760Z,95.70
2024-03-06T03:54:07.346Z,95.11
2024-03-06T03:56:34.582Z,95.44
2024-03-06T03:59:01.282Z,95.65
2024-03-06T04:01:28.074Z,94.93
2024-03-06T04:03:54.695Z,95.49
2024-03-06T04:06:21.361Z,95.23
2024-03-06T04:08:48.048Z,95.32
2024-03-06T04:11:14.735Z,95.33
2024-03-06T04:13:41.439Z,95.80
2024-03-06T04:16:08.158Z,95.24
2024-03-06T04:18:35.325Z,95.03
2024-03-06T04:21:08.436Z,95.49
2024-03-06T04:23:35.262Z,95.29
2024-03-06T04:26:02.337Z,95.34
2024-03-06T04:28:29.308Z,95.82
2024-03-06T04:30:56.531Z,95.29
2024-03-06T04:33:23.246Z,94.92
2024-03-06T04:35:49.897Z,95.33
2024-03-06T04:38:16.769Z,95.45
2024-03-06T04:40:43.627Z,95.09
2024-03-06T04:43:10.545Z,95.26
2024-03-06T04:45:37.194Z,95.49
2024-03-06T04:48:04.271Z,95.02
2024-03-06T04:50:30.882Z,95.37
2024-03-06T04:52:57.701Z,95.02
2024-03-06T04:55:26.157Z,95.64
2024-03-06T04:57:56.878Z,95.46
2024-03-06T05:00:24.365Z,95.10
2024-03-06T06:00:30.651Z,95.15
2024-03-06T06:02:57.427Z,95.25
2024-03-06T06:05:25.313Z,95.39
2024-03-06T06:07:52.384Z,95.42
2024-03-06T06:10:21.708Z,94.96
2024-03-06T06:12:49.944Z,94.99
2024-03-06T06:15:16.870Z,95.18
2024-03-06T06:17:47.305Z,95.53
2024-03-06T06:20:18.146Z,95.55
2024-03-06T06:22:45.518Z,95.15
2024-03-06T06:25:12.500Z,95.07
2024-03-06T06:27:40.075Z,95.28
2024-03-06T06:30:10.100Z,95.50
2024-03-06T06:32:37.769Z,95.21
2024-03-06T06:35:06.108Z,95.44
2024-03-06T06:37:33.024Z,95.80
2024-03-06T06:40:00.625Z,95.24
2024-03-06T06:42:27.266Z,95.75
2024-03-06T06:44:54.190Z,95.38
2024-03-06T06:47:20.852Z,95.51
2024-03-06T06:49:47.456Z,95.56
2024-03-06T06:52:15.880Z,95.72
2024-03-06T06:54:42.467Z,95.76
2024-03-06T06:57:09.968Z,95.79
2024-03-06T06:59:36.568Z,95.39
2024-03-06T07:02:03.952Z,95.18
2024-03-06T07:04:30.552Z,95.27
2024-03-06T07:06:57.152Z,95.35
2024-03-06T07:09:23.764Z,95.29
2024-03-06T07:11:50.711Z,95.74
2024-03-06T07:14:17.379Z,95.38
2024-03-06T07:16:45.189Z,95.71
2024-03-06T07:19:12.774Z,95.43
2024-03-06T07:21:39.634Z,95.74
2024-03-06T07:24:06.525Z,95.32
2024-03-06T07:26:34.538Z,95.78
2024-03-06T07:29:01.797Z,95.22
2024-03-06T07:31:28.542Z,95.49
2024-03-06T07:33:55.098Z,95.84
2024-03-06T07:36:22.044Z,95.60
2024-03-06T07:38:48.728Z,95.29
2024-03-06T07:41:15.384Z,94.93
2024-03-06T07:43:42.498Z,94.53
2024-03-06T07:46:11.701Z,95.25
2024-03-06T07:48:39.460Z,94.85
2024-03-06T07:51:06.460Z,94.98
2024-03-06T07:53:33.150Z,94.92
2024-03-06T07:55:59.936Z,95.09
2024-03-06T07:58:26.689Z,95.06
2024-03-06T08:00:57.548Z,94.71
2024-03-06T08:03:25.435Z,94.76
2024-03-06T08:05:56.299Z,94.84
2024-03-06T08:08:23.464Z,95.05
2024-03-06T08:10:50.402Z,94.66
2024-03-06T08:13:18.884Z,94.84
2024-03-06T08:15:46.267Z,94.78
2024-03-06T08:18:14.582Z,94.40
2024-03-06T08:20:42.743Z,94.51
2024-03-06T08:23:11.369Z,94.54
2024-03-06T08:25:38.918Z,94.68
2024-03-06T08:28:06.619Z,94.55
2024-03-06T08:30:33.899Z,94.86
2024-03-06T08:33:00.914Z,94.23
2024-03-06T08:35:27.964Z,94.02
2024-03-06T08:37:54.700Z,93.86
2024-03-06T08:40:21.842Z,94.17
2024-03-06T08:42:49.810Z,94.10
2024-03-06T08:45:17.848Z,94.24
2024-03-06T08:47:45.660Z,94.29
2024-03-06T08:50:13.633Z,94.13
2024-03-06T08:52:40.570Z,94.16
2024-03-06T08:55:08.081Z,94.36
2024-03-06T08:57:35.783Z,93.74
2024-03-06T09:00:03.428Z,93.95
2024-03-06T09:02:31.854Z,93.62
2024-03-06T09:04:58.462Z,93.39
2024-03-06T09:07:25.152Z,93.56
2024-03-06T09:09:54.879Z,93.60
2024-03-06T09:12:21.620Z,93.43
2024-03-06T09:14:48.313Z,92.42
2024-03-06T09:17:15.889Z,92.37
2024-03-06T09:19:54.983Z,92.49
2024-03-06T09:22:29.819Z,92.08
2024-03-06T09:24:57.596Z,92.17
2024-03-06T09:27:24.428Z,92.57
2024-03-06T09:29:51.080Z,92.61
2024-03-06T09:32:20.096Z,92.34
2024-03-06T09:34:47.031Z,92.13
2024-03-06T09:37:13.750Z,91.70
2024-03-06T09:39:40.390Z,91.69
2024-03-06T09:42:07.804Z,92.04
2024-03-06T09:44:35.425Z,91.29
2024-03-06T09:47:07.373Z,91.02
2024-03-06T09:49:35.999Z,91.06
2024-03-06T09:52:05.020Z,91.26
2024-03-06T09:54:31.830Z,89.97
2024-03-06T09:57:00.074Z,89.98
2024-03-06T09:59:28.314Z,89.97
2024-03-06T10:01:59.470Z,90.52
2024-03-06T10:04:27.745Z,90.02
2024-03-06T10:06:56.227Z,89.87
2024-03-06T10:09:22.989Z,88.95
2024-03-06T10:11:50.226Z,89.62
2024-03-06T10:14:17.135Z,89.32
2024-03-06T10:16:53.167Z,88.80
2024-03-06T10:19:20.486Z,89.36
2024-03-06T10:21:52.097Z,87.78
2024-03-06T10:24:29.168Z,87.54
2024-03-06T10:26:59.192Z,87.76
2024-03-06T10:29:27.628Z,87.28
2024-03-06T10:31:57.581Z,88.62
2024-03-06T10:34:28.798Z,87.39
2024-03-06T10:37:14.177Z,88.27
2024-03-06T10:39:45.302Z,86.50
2024-03-06T10:42:14.382Z,86.33
2024-03-06T10:44:52.985Z,85.59
2024-03-06T10:47:20.548Z,84.58
2024-03-06T10:49:48.528Z,84.36
2024-03-06T10:52:17.873Z,83.88
2024-03-06T10:54:47.300Z,83.90
2024-03-06T10:57:15.489Z,83.40
2024-03-06T10:59:44.198Z,82.62
2024-03-06T11:02:13.833Z,82.64
2024-03-06T11:04:41.794Z,83.03
2024-03-06T11:07:11.908Z,81.46
2024-03-06T11:09:40.915Z,80.74
2024-03-06T11:12:08.433Z,79.98
2024-03-06T11:14:39.715Z,81.26
2024-03-06T11:17:09.646Z,80.74
2024-03-06T11:20:01.843Z,80.98
2024-03-06T11:23:00.830Z,80.33
2024-03-06T11:25:47.165Z,80.43
2024-03-06T11:28:31.013Z,81.48
2024-03-06T11:31:06.570Z,80.50
2024-03-06T11:33:44.936Z,79.93
2024-03-06T11:36:21.762Z,77.85
2024-03-06T11:38:49.442Z,79.68
2024-03-06T11:41:16.191Z,79.47
2024-03-06T11:43:44.027Z,77.25
2024-03-06T11:46:11.566Z,75.71
2024-03-06T11:48:39.706Z,74.57
2024-03-06T11:51:06.698Z,74.38
2024-03-06T11:53:38.347Z,75.25
2024-03-06T11:56:11.117Z,75.46
2024-03-06T11:58:39.008Z,74.00
2024-03-06T12:01:05.913Z,72.98
2024-03-06T12:03:32.833Z,73.14
2024-03-06T12:06:00.068Z,73.99
2024-03-06T12:08:28.177Z,73.04
2024-03-06T12:10:56.730Z,74.05
2024-03-06T12:13:23.755Z,73.66
2024-03-06T12:15:50.486Z,72.93
2024-03-06T12:18:20.508Z,73.11
2024-03-06T12:20:47.399Z,74.01
2024-03-06T12:23:30.316Z,73.14
2024-03-06T12:26:11.298Z,73.66
2024-03-06T12:28:39.454Z,73.31
2024-03-06T12:31:08.851Z,73.88
2024-03-06T12:33:35.914Z,73.53
2024-03-06T12:36:07.875Z,74.16
2024-03-06T12:38:34.768Z,74.43
2024-03-06T12:41:01.545Z,74.30
2024-03-06T12:43:29.906Z,74.24
2024-03-06T12:45:58.701Z,73.99
2024-03-06T12:48:26.985Z,74.12
2024-03-06T12:50:55.361Z,74.05
2024-03-06T12:53:23.307Z,73.21
2024-03-06T12:55:50.079Z,73.15
2024-03-06T12:58:16.793Z,72.73
2024-03-06T13:00:43.489Z,72.59
2024-03-06T13:03:13.607Z,73.16
2024-03-06T13:05:40.310Z,72.92
2024-03-06T13:08:07.226Z,72.71
2024-03-06T13:10:33.901Z,72.70
2024-03-06T13:13:00.602Z,72.41
2024-03-06T13:15:27.193Z,73.48
2024-03-06T13:17:53.888Z,72.30
2024-03-06T13:20:20.805Z,72.98
2024-03-06T13:22:47.404Z,72.50
2024-03-06T13:25:14.180Z,71.15
2024-03-06T13:27:40.842Z,71.36
2024-03-06T13:30:09.288Z,71.84
2024-03-06T13:32:36.238Z,70.55
2024-03-06T13:35:03.492Z,69.19
2024-03-06T13:37:30.299Z,69.33
2024-03-06T13:40:01.577Z,68.72
2024-03-06T13:42:28.644Z,69.17
2024-03-06T13:44:55.268Z,68.03
2024-03-06T13:47:22.012Z,68.22
2024-03-06T13:49:48.685Z,67.13
2024-03-06T13:52:16.497Z,66.49
2024-03-06T13:54:43.772Z,65.54
2024-03-06T13:57:10.821Z,65.63
2024-03-06T13:59:38.970Z,64.87
2024-03-06T14:02:07.789Z,64.15
2024-03-06T14:04:34.902Z,64.92
2024-03-06T14:07:01.595Z,65.15
2024-03-06T14:09:28.312Z,64.98
2024-03-06T14:11:55.520Z,64.72
2024-03-06T14:14:22.316Z,64.13
2024-03-06T14:16:49.137Z,64.47
2024-03-06T14:19:15.919Z,64.30
2024-03-06T14:21:43.823Z,64.46
2024-03-06T14:24:10.484Z,64.69
2024-03-06T14:26:38.035Z,64.02
2024-03-06T14:29:08.436Z,64.50
2024-03-06T14:31:35.768Z,66.59
2024-03-06T14:34:06.172Z,67.00
2024-03-06T14:36:35.334Z,66.69
2024-03-06T14:39:02.101Z,66.61
2024-03-06T14:41:28.850Z,65.73
2024-03-06T14:43:55.640Z,65.63
2024-03-06T14:46:22.361Z,64.75
2024-03-06T14:48:48.981Z,65.51
2024-03-06T14:51:16.410Z,65.48
2024-03-06T14:53:43.155Z,64.55
2024-03-06T14:56:12.060Z,64.40
2024-03-06T14:58:39.128Z,64.37
2024-03-06T15:01:06.241Z,64.22
2024-03-06T15:03:33.075Z,64.04
2024-03-06T15:05:59.985Z,64.52
2024-03-06T15:08:26.701Z,64.35
2024-03-06T15:10:55.185Z,63.93
2024-03-06T15:13:23.909Z,64.38
2024-03-06T15:15:51.691Z,63.60
2024-03-06T15:18:18.848Z,63.62
2024-03-06T15:20:45.899Z,63.26
2024-03-06T15:23:12.716Z,63.57
2024-03-06T15:25:39.685Z,63.11
2024-03-06T15:28:06.453Z,64.57
2024-03-06T15:30:35.418Z,64.74
2024-03-06T15:33:04.204Z,64.70
2024-03-06T15:35:31.230Z,64.83
2024-03-06T15:37:57.999Z,64.98
2024-03-06T15:40:26.016Z,64.74
2024-03-06T15:42:56.338Z,65.63
2024-03-06T15:45:24.107Z,65.50
2024-03-06T15:47:50.918Z,65.33
2024-03-06T15:50:17.802Z,64.80
2024-03-06T15:52:44.472Z,64.39
2024-03-06T15:55:11.190Z,64.60
2024-03-06T15:57:38.307Z,64.56
2024-03-06T16:00:14.488Z,63.71
2024-03-06T16:02:42.452Z,63.75
2024-03-06T16:05:09.669Z,64.24
2024-03-06T16:07:42.086Z,64.17
2024-03-06T16:10:11.815Z,63.76
2024-03-06T16:12:38.448Z,63.56
2024-03-06T16:15:05.750Z,63.52
2024-03-06T16:17:32.617Z,63.51
2024-03-06T16:19:59.371Z,63.71
2024-03-06T16:22:26.295Z,64.97
2024-03-06T16:24:53.147Z,64.62
2024-03-06T16:27:20.132Z,65.56
2024-03-06T16:29:49.152Z,65.69
2024-03-06T16:32:15.906Z,65.62
2024-03-06T16:34:42.637Z,66.14
2024-03-06T16:37:09.518Z,65.95
2024-03-06T16:39:36.337Z,65.95
2024-03-06T16:42:04.015Z,66.32
2024-03-06T16:44:31.574Z,66.43
2024-03-06T16:46:58.203Z,66.78
2024-03-06T16:49:25.725Z,66.91
2024-03-06T16:51:53.202Z,67.24
2024-03-06T16:54:19.806Z,67.32
2024-03-06T16:56:46.515Z,67.83
2024-03-06T16:59:14.446Z,68.15
2024-03-06T17:01:42.422Z,68.62
2024-03-06T17:04:09.204Z,68.14
2024-03-06T17:06:36.251Z,68.50
2024-03-06T17:09:02.943Z,69.51
2024-03-06T17:11:29.871Z,69.19
2024-03-06T17:13:56.606Z,69.47
2024-03-06T17:16:23.239Z,70.17
2024-03-06T17:18:49.935Z,69.82
2024-03-06T17:21:16.665Z,70.31
2024-03-06T17:23:45.014Z,70.42
2024-03-06T17:26:13.277Z,69.98
2024-03-06T17:28:41.359Z,70.61
2024-03-06T17:31:08.664Z,70.57
2024-03-06T17:33:35.314Z,69.98
2024-03-06T17:36:02.010Z,70.14
2024-03-06T17:38:30.776Z,71.07
2024-03-06T17:40:57.452Z,70.50
2024-03-06T17:43:24.144Z,71.37
2024-03-06T17:45:50.826Z,70.89
2024-03-06T17:48:18.485Z,71.59
2024-03-06T17:50:47.564Z,71.50
2024-03-06T17:53:14.805Z,71.97
2024-03-06T17:55:42.078Z,71.46
2024-03-06T17:58:09.138Z,71.73
2024-03-06T18:00:37.796Z,71.52
2024-03-06T18:03:04.992Z,72.31
2024-03-06T18:05:31.820Z,71.72
2024-03-06T18:07:58.429Z,72.00
2024-03-06T18:10:25.129Z,72.80
2024-03-06T18:12:51.905Z,72.42
2024-03-06T18:15:19.239Z,72.98
2024-03-06T18:17:45.944Z,72.92
2024-03-06T18:20:13.025Z,72.96
2024-03-06T18:22:39.919Z,73.87
2024-03-06T18:25:07.667Z,73.06
2024-03-06T18:27:35.174Z,73.98
2024-03-06T18:30:03.914Z,73.92
2024-03-06T18:32:30.685Z,74.09
2024-03-06T18:34:59.022Z,74.40
2024-03-06T18:37:26.084Z,74.19
2024-03-06T18:39:54.321Z,74.82
2024-03-06T18:42:22.200Z,74.46
2024-03-06T18:44:49.807Z,75.13
2024-03-06T18:47:16.877Z,75.18
2024-03-06T18:49:43.628Z,75.42
2024-03-06T18:52:10.748Z,75.49
2024-03-06T18:54:43.051Z,75.59
2024-03-06T18:57:10.070Z,75.88
2024-03-06T18:59:38.784Z,76.45
2024-03-06T19:02:07.601Z,76.23
2024-03-06T19:04:36.809Z,76.51
2024-03-06T19:07:04.934Z,76.45
2024-03-06T19:09:31.539Z,76.97
2024-03-06T19:11:58.372Z,77.10
2024-03-06T19:14:25.079Z,77.43
2024-03-06T19:16:52.224Z,77.61
2024-03-06T19:19:19.157Z,77.61
2024-03-06T19:21:45.962Z,78.15
2024-03-06T19:24:12.638Z,78.47
2024-03-06T19:26:39.337Z,78.29
2024-03-06T19:29:06.136Z,78.73
2024-03-06T19:31:36.001Z,78.25
2024-03-06T19:34:03.681Z,78.75
2024-03-06T19:36:30.690Z,78.85
2024-03-06T19:38:57.309Z,79.21
2024-03-06T19:41:24.554Z,79.04
2024-03-06T19:43:51.297Z,79.34
2024-03-06T19:46:18.042Z,79.28
2024-03-06T19:48:44.758Z,79.33
2024-03-06T19:51:13.423Z,79.97
2024-03-06T19:53:41.618Z,79.67
2024-03-06T19:56:11.432Z,80.17
2024-03-06T19:58:38.366Z,80.39
2024-03-06T20:01:05.118Z,80.30
2024-03-06T20:03:31.765Z,80.64
2024-03-06T20:05:58.641Z,80.79
2024-03-06T20:08:26.268Z,80.70
2024-03-06T20:10:53.222Z,80.31
2024-03-06T20:13:19.984Z,80.60
2024-03-06T20:15:46.775Z,81.38
2024-03-06T20:18:13.646Z,81.22
2024-03-06T20:20:41.893Z,80.98
2024-03-06T20:23:11.082Z,81.00
2024-03-06T20:25:42.183Z,81.71
2024-03-06T20:28:10.237Z,81.86
2024-03-06T20:30:47.751Z,82.33
2024-03-06T20:33:14.833Z,82.37
2024-03-06T20:35:41.673Z,82.05
2024-03-06T20:38:13.681Z,81.65
2024-03-06T20:40:43.477Z,82.74
2024-03-06T20:43:10.313Z,82.57
2024-03-06T20:45:39.872Z,83.04
2024-03-06T20:48:08.390Z,83.09
2024-03-06T20:50:36.269Z,82.97
2024-03-06T20:53:03.706Z,83.46
2024-03-06T20:55:30.738Z,83.86
2024-03-06T20:57:57.889Z,84.12
2024-03-06T21:00:24.673Z,84.87
2024-03-06T21:02:51.414Z,85.00
2024-03-06T21:05:18.229Z,84.80
2024-03-06T21:07:44.940Z,84.75
2024-03-06T21:10:15.782Z,86.06
2024-03-06T21:12:48.927Z,86.88
2024-03-06T21:15:16.791Z,86.48
2024-03-06T21:17:44.535Z,88.06
2024-03-06T21:20:14.861Z,87.73
2024-03-06T21:22:43.070Z,88.88
2024-03-06T21:25:11.096Z,89.47
2024-03-06T21:27:38.827Z,89.40
2024-03-06T21:30:09.132Z,89.62
2024-03-06T21:32:39.179Z,90.35
2024-03-06T21:35:06.190Z,90.16
2024-03-06T21:37:33.597Z,90.57
2024-03-06T21:40:00.656Z,90.39
2024-03-06T21:42:33.903Z,90.18
2024-03-06T21:45:00.758Z,89.94
2024-03-06T21:47:27.881Z,89.50
2024-03-06T21:49:54.676Z,89.07
2024-03-06T21:52:21.509Z,88.93
2024-03-06T21:54:48.162Z,88.58
2024-03-06T21:57:16.458Z,89.53
2024-03-06T21:59:43.290Z,89.59
2024-03-06T22:02:11.752Z,89.19
2024-03-06T22:04:38.753Z,89.23
2024-03-06T22:07:05.541Z,90.46
2024-03-06T22:09:33.143Z,90.32
2024-03-06T22:12:01.984Z,90.77
2024-03-06T22:14:29.099Z,90.12
2024-03-06T22:16:55.780Z,91.14
2024-03-06T22:19:25.478Z,90.83
2024-03-06T22:21:52.356Z,90.59
2024-03-06T22:24:19.013Z,91.63
2024-03-06T22:26:45.833Z,91.08
2024-03-06T22:29:12.531Z,90.79
2024-03-06T22:31:39.426Z,90.98
2024-03-06T22:34:07.815Z,91.34
2024-03-06T22:36:34.542Z,91.16
2024-03-06T22:39:01.734Z,91.16
2024-03-06T22:41:28.709Z,92.09
2024-03-06T22:43:55.964Z,91.57
2024-03-06T22:46:23.800Z,91.45
2024-03-06T22:48:51.152Z,90.94
2024-03-06T22:51:18.816Z,90.55
2024-03-06T22:53:46.181Z,91.08
2024-03-06T22:56:14.182Z,90.48
2024-03-06T22:58:41.258Z,90.88
2024-03-06T23:01:08.032Z,90.23
2024-03-06T23:03:36.157Z,89.89
2024-03-06T23:06:03.634Z,90.05
2024-03-06T23:08:30.356Z,89.32
2024-03-06T23:10:59.975Z,89.59
2024-03-06T23:13:26.773Z,89.10
2024-03-06T23:15:53.812Z,89.43
2024-03-06T23:18:21.334Z,89.46
2024-03-06T23:20:49.903Z,89.25
2024-03-06T23:23:16.900Z,89.36
2024-03-06T23:25:43.719Z,89.22
2024-03-06T23:28:11.887Z,90.02
2024-03-06T23:30:38.998Z,90.35
2024-03-06T23:33:07.084Z,90.39
2024-03-06T23:35:33.948Z,89.64
2024-03-06T23:38:00.645Z,90.62
2024-03-06T23:40:30.528Z,89.74
2024-03-06T23:42:58.146Z,90.64
2024-03-06T23:45:25.121Z,89.78
2024-03-06T23:47:52.579Z,89.76
2024-03-06T23:50:21.088Z,90.59
2024-03-06T23:52:49.130Z,91.31
2024-03-06T23:55:16.947Z,91.51
2024-03-06T23:57:43.734Z,91.79
